Time;durP1;ratioP1;P1;durP2;ratioP2;P2;SDS_P1;SDS_P2;PMS_P1;PMS_P2;Temp;Humidity;BMP_temperature;BMP_pressure;BME280_temperature;BME280_humidity;BME280_pressure;Samples;Min_cycle;Max_cycle;Signal;HPM_P1;HPM_P2
2022/12/03 00:00:06;;;;;;;15.23;13.25;;;19.20;96.90;;;;;;4236682;27;20213;-71
2022/12/03 00:02:08;;;;;;;14.90;13.13;;;19.20;96.80;;;;;;4242126;27;20557;-71
2022/12/03 00:04:10;;;;;;;14.30;12.70;;;19.20;96.80;;;;;;4237785;27;20241;-71
2022/12/03 00:06:12;;;;;;;14.30;12.63;;;19.20;96.70;;;;;;4245413;27;20229;-71
2022/12/03 00:08:15;;;;;;;13.63;12.20;;;19.20;96.70;;;;;;4242798;27;20221;-71
2022/12/03 00:10:17;;;;;;;13.32;11.93;;;19.20;96.70;;;;;;4246857;27;20212;-71
2022/12/03 00:12:20;;;;;;;13.77;12.00;;;19.10;96.70;;;;;;4250659;27;20713;-71
2022/12/03 00:14:23;;;;;;;15.35;12.95;;;19.10;96.50;;;;;;4250345;27;20261;-71
2022/12/03 00:16:26;;;;;;;13.93;12.20;;;19.20;96.70;;;;;;4243533;27;20293;-71
2022/12/03 00:18:28;;;;;;;13.73;11.95;;;19.10;96.70;;;;;;4246787;27;20217;-71
2022/12/03 00:20:30;;;;;;;14.57;12.98;;;19.10;96.50;;;;;;4246676;27;20217;-71
2022/12/03 00:22:33;;;;;;;13.80;12.25;;;19.10;96.40;;;;;;4237002;27;20233;-71
2022/12/03 00:24:35;;;;;;;14.20;12.52;;;19.10;96.50;;;;;;4228094;28;20287;-71
2022/12/03 00:26:37;;;;;;;14.50;12.93;;;19.10;96.40;;;;;;4241830;27;20221;-71
2022/12/03 00:28:40;;;;;;;13.20;11.80;;;19.10;96.80;;;;;;4226104;27;20213;-71
2022/12/03 00:30:44;;;;;;;13.23;11.82;;;19.10;96.70;;;;;;4233977;27;20277;-72
2022/12/03 00:32:46;;;;;;;14.63;12.32;;;19.10;96.50;;;;;;4228727;28;20268;-71
2022/12/03 00:34:48;;;;;;;13.30;11.90;;;19.10;96.60;;;;;;4247571;27;20256;-71
2022/12/03 00:36:51;;;;;;;14.52;12.77;;;19.10;96.30;;;;;;4246735;27;20221;-71
2022/12/03 00:38:53;;;;;;;13.68;12.23;;;19.00;96.30;;;;;;4234253;27;20262;-72
2022/12/03 00:40:55;;;;;;;13.55;11.52;;;19.00;96.30;;;;;;4251189;27;20273;-71
2022/12/03 00:42:58;;;;;;;13.77;12.35;;;19.00;96.40;;;;;;4249441;27;20213;-71
2022/12/03 00:45:00;;;;;;;13.32;11.93;;;19.00;96.00;;;;;;4246146;27;20237;-71
2022/12/03 00:47:04;;;;;;;13.70;12.25;;;19.00;96.10;;;;;;4247210;27;20259;-71
2022/12/03 00:49:06;;;;;;;13.05;11.57;;;19.00;96.10;;;;;;4256514;27;20208;-71
2022/12/03 00:51:09;;;;;;;13.02;11.68;;;19.00;96.20;;;;;;4254049;27;20213;-71
2022/12/03 00:53:11;;;;;;;12.38;10.68;;;19.00;96.20;;;;;;4254027;27;20221;-71
2022/12/03 00:55:13;;;;;;;12.43;11.20;;;19.00;96.10;;;;;;4243525;27;20210;-80
2022/12/03 00:57:16;;;;;;;14.23;12.70;;;19.00;96.30;;;;;;4249929;27;20257;-80
2022/12/03 00:59:18;;;;;;;13.30;11.90;;;19.00;96.20;;;;;;4256823;27;20212;-80
2022/12/03 01:01:21;;;;;;;14.88;11.68;;;19.00;95.90;;;;;;4256269;27;20217;-81
2022/12/03 01:03:24;;;;;;;12.85;11.55;;;19.00;96.10;;;;;;4251257;27;20221;-80
2022/12/03 01:05:27;;;;;;;13.40;12.00;;;19.00;96.00;;;;;;4247725;27;20240;-80
2022/12/03 01:07:30;;;;;;;13.15;11.75;;;19.00;96.00;;;;;;4260216;27;20608;-80
2022/12/03 01:09:32;;;;;;;13.32;11.93;;;19.00;96.00;;;;;;4243901;27;20213;-81
2022/12/03 01:11:37;;;;;;;13.10;11.70;;;18.90;95.80;;;;;;4246826;27;20209;-80
2022/12/03 01:13:39;;;;;;;12.45;11.15;;;18.90;95.70;;;;;;4244914;27;20230;-80
2022/12/03 01:15:42;;;;;;;12.63;11.27;;;18.90;96.00;;;;;;4244064;27;20209;-80
2022/12/03 01:17:44;;;;;;;12.45;11.15;;;18.90;95.80;;;;;;4247199;27;20270;-80
2022/12/03 01:19:51;;;;;;;12.52;11.23;;;18.90;95.90;;;;;;4247501;27;20212;-80
2022/12/03 01:21:54;;;;;;;12.75;11.25;;;18.90;95.80;;;;;;4242888;27;20233;-80
2022/12/03 01:23:57;;;;;;;12.25;10.95;;;18.90;95.90;;;;;;4244178;27;20624;-80
2022/12/03 01:25:59;;;;;;;12.20;10.90;;;18.90;95.80;;;;;;4231269;27;21049;-81
2022/12/03 01:28:01;;;;;;;11.80;10.55;;;18.90;95.80;;;;;;4240290;27;20210;-81
2022/12/03 01:30:04;;;;;;;12.40;11.10;;;18.90;95.70;;;;;;4238724;27;20258;-81
2022/12/03 01:32:18;;;;;;;12.20;10.93;;;18.90;95.90;;;;;;4244814;27;20557;-81
2022/12/03 01:34:21;;;;;;;12.18;10.95;;;18.90;95.70;;;;;;4239267;27;20216;-81
2022/12/03 01:36:24;;;;;;;12.27;10.73;;;18.90;95.80;;;;;;4240236;27;20251;-80
2022/12/03 01:38:27;;;;;;;11.43;10.30;;;18.90;95.60;;;;;;4237812;27;20213;-81
2022/12/03 01:40:29;;;;;;;12.13;10.90;;;18.90;95.90;;;;;;4238036;27;20662;-81
2022/12/03 01:42:35;;;;;;;12.48;11.27;;;18.80;95.70;;;;;;4240002;28;20222;-81
2022/12/03 01:44:39;;;;;;;12.00;10.80;;;18.90;95.70;;;;;;4237880;28;21004;-80
2022/12/03 01:46:42;;;;;;;12.50;11.20;;;18.80;95.70;;;;;;4229576;28;20254;-81
2022/12/03 01:48:46;;;;;;;12.20;11.00;;;18.80;96.00;;;;;;4236469;28;20270;-81
2022/12/03 01:50:48;;;;;;;12.10;10.80;;;18.80;95.60;;;;;;4241873;27;20209;-81
2022/12/03 01:52:55;;;;;;;11.82;10.63;;;18.80;95.60;;;;;;4243005;27;20218;-81
2022/12/03 01:55:00;;;;;;;10.98;9.88;;;18.80;95.60;;;;;;4238523;27;20271;-81
2022/12/03 01:57:02;;;;;;;12.00;10.43;;;18.80;95.60;;;;;;4231782;27;20658;-80
2022/12/03 01:59:05;;;;;;;11.85;10.65;;;18.80;95.50;;;;;;4244811;27;20212;-80
2022/12/03 02:01:12;;;;;;;12.15;10.95;;;18.80;95.50;;;;;;4240007;27;20255;-80
2022/12/03 02:03:19;;;;;;;12.55;11.25;;;18.80;95.60;;;;;;4244795;27;20217;-81
2022/12/03 02:05:24;;;;;;;11.95;10.75;;;18.80;95.40;;;;;;4244617;27;20249;-81
2022/12/03 02:07:28;;;;;;;12.07;10.88;;;18.80;95.50;;;;;;4239599;27;20728;-81
2022/12/03 02:09:31;;;;;;;12.25;10.95;;;18.70;95.30;;;;;;4240225;27;20221;-81
2022/12/03 02:11:38;;;;;;;11.90;10.57;;;18.80;95.40;;;;;;4243624;27;20217;-81
2022/12/03 02:13:41;;;;;;;12.00;10.70;;;18.80;95.40;;;;;;4246860;27;20274;-81
2022/12/03 02:15:44;;;;;;;12.15;10.82;;;18.80;95.60;;;;;;4242444;27;20251;-80
2022/12/03 02:17:46;;;;;;;11.90;10.63;;;18.70;95.40;;;;;;4247607;27;20726;-81
2022/12/03 02:19:49;;;;;;;11.30;10.10;;;18.70;95.40;;;;;;4245372;27;20262;-80
2022/12/03 02:21:58;;;;;;;12.18;10.93;;;18.70;95.20;;;;;;4237721;27;20277;-80
2022/12/03 02:24:07;;;;;;;11.70;10.50;;;18.70;95.20;;;;;;4243704;27;20259;-81
2022/12/03 02:26:11;;;;;;;11.13;10.00;;;18.70;95.20;;;;;;4246346;27;20365;-81
2022/12/03 02:28:13;;;;;;;11.30;10.10;;;18.70;95.20;;;;;;4247142;27;20214;-81
2022/12/03 02:30:19;;;;;;;11.70;9.93;;;18.70;95.40;;;;;;4250846;27;20261;-81
2022/12/03 02:32:22;;;;;;;11.80;10.60;;;18.70;95.20;;;;;;4245110;27;20213;-81
2022/12/03 02:34:35;;;;;;;11.07;9.90;;;18.70;95.30;;;;;;4253338;27;20220;-80
2022/12/03 02:36:39;;;;;;;11.02;9.93;;;18.60;95.20;;;;;;4249909;27;20254;-80
2022/12/03 02:38:43;;;;;;;10.88;9.77;;;18.70;94.90;;;;;;4242604;27;20312;-81
2022/12/03 02:40:46;;;;;;;11.07;9.60;;;18.70;95.00;;;;;;4246534;27;20209;-81
2022/12/03 02:42:52;;;;;;;11.50;10.30;;;18.70;95.20;;;;;;4239119;27;20214;-81
2022/12/03 02:44:55;;;;;;;11.00;9.95;;;18.70;95.10;;;;;;4255961;27;20218;-80
2022/12/03 02:46:57;;;;;;;10.50;9.35;;;18.60;95.10;;;;;;4250034;27;20229;-81
2022/12/03 02:49:01;;;;;;;11.05;9.95;;;18.60;95.10;;;;;;4241213;27;20232;-81
2022/12/03 02:51:06;;;;;;;11.20;9.07;;;18.70;95.20;;;;;;4242426;27;20234;-81
2022/12/03 02:53:13;;;;;;;10.85;9.75;;;18.60;95.30;;;;;;4243843;27;20755;-81
2022/12/03 02:55:18;;;;;;;11.02;9.90;;;18.60;95.10;;;;;;4242084;27;20234;-80
2022/12/03 02:57:20;;;;;;;11.63;10.43;;;18.60;95.10;;;;;;4248789;27;20277;-80
2022/12/03 02:59:24;;;;;;;10.85;9.57;;;18.60;95.10;;;;;;4245365;27;20225;-81
2022/12/03 03:01:27;;;;;;;9.93;8.98;;;18.60;95.20;;;;;;4236345;27;20628;-81
2022/12/03 03:03:31;;;;;;;10.85;9.43;;;18.60;95.00;;;;;;4249520;27;20213;-80
2022/12/03 03:05:35;;;;;;;10.48;9.38;;;18.60;95.00;;;;;;4245932;27;20250;-81
2022/12/03 03:07:39;;;;;;;11.10;10.00;;;18.60;94.90;;;;;;4246776;27;20670;-81
2022/12/03 03:09:42;;;;;;;10.07;9.07;;;18.60;95.10;;;;;;4259221;27;20209;-81
2022/12/03 03:11:44;;;;;;;10.45;9.20;;;18.60;95.00;;;;;;4245832;27;20255;-81
2022/12/03 03:13:47;;;;;;;10.02;9.02;;;18.60;95.00;;;;;;4248964;27;20212;-81
2022/12/03 03:15:50;;;;;;;10.95;9.70;;;18.60;94.90;;;;;;4236295;27;20206;-81
2022/12/03 03:17:53;;;;;;;10.52;9.43;;;18.50;94.90;;;;;;4239624;27;20630;-80
2022/12/03 03:19:55;;;;;;;9.85;8.85;;;18.60;95.00;;;;;;4233622;27;20218;-81
2022/12/03 03:21:58;;;;;;;10.95;9.48;;;18.60;94.80;;;;;;4235826;27;20224;-80
2022/12/03 03:24:00;;;;;;;10.40;9.27;;;18.50;95.10;;;;;;4244916;27;20209;-80
2022/12/03 03:26:04;;;;;;;10.50;9.02;;;18.50;95.20;;;;;;4242119;27;20245;-81
2022/12/03 03:28:23;;;;;;;10.02;9.07;;;18.50;95.00;;;;;;4200726;27;20205;-81
2022/12/03 03:30:26;;;;;;;10.13;9.07;;;18.50;95.00;;;;;;4244738;27;20273;-81
2022/12/03 03:32:30;;;;;;;9.73;8.77;;;18.50;94.90;;;;;;4244867;27;20262;-81
2022/12/03 03:34:33;;;;;;;10.82;9.73;;;18.50;94.90;;;;;;4242550;27;20221;-81
2022/12/03 03:36:36;;;;;;;9.95;8.95;;;18.50;94.70;;;;;;4245392;27;20217;-81
2022/12/03 03:38:39;;;;;;;10.27;9.27;;;18.50;94.80;;;;;;4243614;27;20266;-80
2022/12/03 03:40:42;;;;;;;10.30;9.13;;;18.50;95.00;;;;;;4240084;27;20349;-80
2022/12/03 03:42:44;;;;;;;11.15;9.57;;;18.50;94.80;;;;;;4239439;27;20226;-81
2022/12/03 03:44:47;;;;;;;10.70;9.55;;;18.50;94.60;;;;;;4246969;27;20217;-81
2022/12/03 03:46:49;;;;;;;10.10;9.05;;;18.50;95.00;;;;;;4242650;27;20229;-81
2022/12/03 03:48:53;;;;;;;10.25;9.15;;;18.50;94.60;;;;;;4245363;27;20269;-81
2022/12/03 03:50:56;;;;;;;9.95;8.95;;;18.50;94.80;;;;;;4232351;27;20213;-81
2022/12/03 03:53:00;;;;;;;9.85;8.75;;;18.50;94.60;;;;;;4234472;27;20618;-81
2022/12/03 03:55:02;;;;;;;10.52;9.15;;;18.40;94.80;;;;;;4237288;27;20205;-81
2022/12/03 03:57:05;;;;;;;10.38;9.27;;;18.40;94.80;;;;;;4239411;27;20258;-81
2022/12/03 03:59:07;;;;;;;9.85;8.85;;;18.40;94.70;;;;;;4230117;27;20213;-81
2022/12/03 04:01:12;;;;;;;9.50;8.50;;;18.40;94.80;;;;;;4234551;27;20231;-81
2022/12/03 04:03:14;;;;;;;10.93;9.75;;;18.40;94.80;;;;;;4245313;27;20286;-81
2022/12/03 04:05:20;;;;;;;9.70;8.70;;;18.40;94.90;;;;;;4243408;27;20585;-81
2022/12/03 04:07:26;;;;;;;9.80;8.90;;;18.40;94.90;;;;;;4242091;27;20349;-81
2022/12/03 04:09:28;;;;;;;9.57;8.57;;;18.40;94.60;;;;;;4235909;27;20217;-81
2022/12/03 04:13:50;;;;;;;9.13;8.23;;;18.40;94.70;;;;;;4242307;27;20194;-81
2022/12/03 04:15:52;;;;;;;10.00;9.00;;;18.40;94.70;;;;;;4239638;27;20602;-81
2022/12/03 04:20:15;;;;;;;10.20;9.05;;;18.40;94.60;;;;;;4239879;27;20205;-81
2022/12/03 04:24:39;;;;;;;9.82;8.80;;;18.30;94.60;;;;;;4240680;27;20201;-81
2022/12/03 04:29:00;;;;;;;10.00;8.60;;;18.40;94.70;;;;;;4236705;27;20261;-80
2022/12/03 04:35:41;;;;;;;9.93;8.93;;;18.40;94.60;;;;;;4231852;27;20259;-81
2022/12/03 04:35:45;;;;;;;9.63;8.73;;;18.40;94.60;;;;;;4244463;27;20205;-81
2022/12/03 04:37:48;;;;;;;9.73;8.73;;;18.40;94.40;;;;;;4237112;27;20719;-81
2022/12/03 04:39:51;;;;;;;9.50;8.57;;;18.30;94.50;;;;;;4233738;27;20250;-81
2022/12/03 04:41:52;;;;;;;9.60;8.70;;;18.30;94.70;;;;;;4238069;27;20270;-81
2022/12/03 04:46:10;;;;;;;10.30;8.93;;;18.30;94.50;;;;;;4214828;28;20221;-81
2022/12/03 04:48:13;;;;;;;10.02;9.00;;;18.30;94.40;;;;;;4231962;27;20749;-81
2022/12/03 04:50:15;;;;;;;10.27;9.23;;;18.30;95.00;;;;;;4244311;27;20376;-81
2022/12/03 04:52:20;;;;;;;9.32;8.32;;;18.30;94.50;;;;;;4246659;27;20262;-81
2022/12/03 04:54:24;;;;;;;9.65;8.73;;;18.30;94.50;;;;;;4245559;27;20631;-80
2022/12/03 04:56:26;;;;;;;9.32;8.32;;;18.30;94.30;;;;;;4231546;27;21641;-81
2022/12/03 04:58:29;;;;;;;9.68;8.68;;;18.30;94.30;;;;;;4244672;27;20269;-81
2022/12/03 05:00:31;;;;;;;9.48;8.48;;;18.30;94.60;;;;;;4242162;27;20208;-81
2022/12/03 05:02:33;;;;;;;9.52;8.60;;;18.30;94.30;;;;;;4243230;27;20217;-80
2022/12/03 05:04:36;;;;;;;9.38;8.23;;;18.30;94.40;;;;;;4245613;27;20209;-81
2022/12/03 05:06:38;;;;;;;9.70;8.70;;;18.30;94.40;;;;;;4246254;27;20285;-81
2022/12/03 05:08:43;;;;;;;8.43;7.63;;;18.30;94.50;;;;;;4233777;27;20236;-80
2022/12/03 05:10:46;;;;;;;9.07;8.18;;;18.30;94.50;;;;;;4240188;27;20213;-81
2022/12/03 05:12:49;;;;;;;9.27;7.97;;;18.30;94.40;;;;;;4230810;27;20213;-81
2022/12/03 05:14:51;;;;;;;8.88;7.90;;;18.20;94.40;;;;;;4243285;27;20213;-81
2022/12/03 05:16:53;;;;;;;9.57;8.57;;;18.30;94.50;;;;;;4246110;27;20209;-80
2022/12/03 05:18:56;;;;;;;8.98;8.07;;;18.30;94.50;;;;;;4243710;27;20610;-81
2022/12/03 05:20:57;;;;;;;8.98;8.07;;;18.20;94.50;;;;;;4242245;27;20254;-81
2022/12/03 05:22:59;;;;;;;8.85;7.95;;;18.20;94.40;;;;;;4230604;27;20260;-80
2022/12/03 05:25:02;;;;;;;10.25;8.75;;;18.20;94.40;;;;;;4240880;27;20578;-81
2022/12/03 05:27:06;;;;;;;9.57;8.55;;;18.20;94.30;;;;;;4244216;27;20305;-81
2022/12/03 05:29:08;;;;;;;9.48;8.30;;;18.20;94.30;;;;;;4231024;27;20252;-80
2022/12/03 05:31:10;;;;;;;9.30;8.40;;;18.20;94.40;;;;;;4240538;27;20209;-81
2022/12/03 05:33:13;;;;;;;8.35;7.55;;;18.20;94.30;;;;;;4241832;27;20635;-80
2022/12/03 05:35:15;;;;;;;8.88;8.07;;;18.20;94.60;;;;;;4239709;27;20270;-81
2022/12/03 05:37:18;;;;;;;8.70;7.82;;;18.20;94.30;;;;;;4232213;27;20253;-80
2022/12/03 05:39:20;;;;;;;8.65;7.75;;;18.20;94.30;;;;;;4245460;27;20213;-81
2022/12/03 05:43:44;;;;;;;8.85;8.00;;;18.20;94.40;;;;;;4236226;27;20664;-80
2022/12/03 05:45:46;;;;;;;8.65;7.75;;;18.20;94.40;;;;;;4245092;27;20205;-81
2022/12/03 05:47:49;;;;;;;8.35;7.32;;;18.20;94.30;;;;;;4241255;27;20278;-81
2022/12/03 05:49:51;;;;;;;9.38;8.15;;;18.10;94.30;;;;;;4242034;27;20213;-81
2022/12/03 05:51:53;;;;;;;8.77;7.95;;;18.10;94.40;;;;;;4239866;28;20262;-80
2022/12/03 05:53:56;;;;;;;9.43;8.50;;;18.10;94.30;;;;;;4234050;28;20626;-81
2022/12/03 05:55:58;;;;;;;9.57;8.30;;;18.20;94.30;;;;;;4227003;28;20271;-81
2022/12/03 05:58:00;;;;;;;8.23;7.43;;;18.10;94.10;;;;;;4235953;28;20210;-81
2022/12/03 06:00:07;;;;;;;8.75;7.85;;;18.20;94.30;;;;;;4235545;28;20238;-80
2022/12/03 06:02:09;;;;;;;8.00;7.30;;;18.10;94.30;;;;;;4230242;28;20213;-80
2022/12/03 06:04:12;;;;;;;8.27;7.18;;;18.10;94.30;;;;;;4245314;28;20250;-81
2022/12/03 06:06:14;;;;;;;8.95;8.05;;;18.10;94.20;;;;;;4241275;28;20262;-81
2022/12/03 06:08:16;;;;;;;8.60;7.80;;;18.10;94.20;;;;;;4236959;28;20246;-81
2022/12/03 06:10:23;;;;;;;8.52;7.57;;;18.10;94.30;;;;;;4235107;28;20341;-81
2022/12/03 06:12:25;;;;;;;9.05;8.15;;;18.10;94.40;;;;;;4238972;28;20624;-80
2022/12/03 06:14:29;;;;;;;8.88;7.95;;;18.10;94.00;;;;;;4237267;28;20615;-81
2022/12/03 06:16:32;;;;;;;8.95;7.85;;;18.10;94.60;;;;;;4241646;28;20209;-81
2022/12/03 06:18:35;;;;;;;8.32;7.53;;;18.10;94.10;;;;;;4240048;28;20285;-81
2022/12/03 06:20:37;;;;;;;8.57;7.70;;;18.10;94.30;;;;;;4236010;28;20217;-81
2022/12/03 06:22:39;;;;;;;8.77;7.88;;;18.10;94.30;;;;;;4234685;28;20302;-80
2022/12/03 06:24:42;;;;;;;8.95;7.82;;;18.10;94.10;;;;;;4235833;28;20337;-81
2022/12/03 06:26:44;;;;;;;9.32;7.78;;;18.10;94.20;;;;;;4238117;28;20218;-80
2022/12/03 06:28:48;;;;;;;8.90;7.93;;;18.10;94.20;;;;;;4229112;28;20238;-80
2022/12/03 06:30:50;;;;;;;7.82;7.07;;;18.00;94.30;;;;;;4234621;27;20265;-80
2022/12/03 06:32:54;;;;;;;7.78;6.97;;;18.00;94.10;;;;;;4234131;27;20258;-80
2022/12/03 06:34:56;;;;;;;8.10;7.30;;;18.00;94.20;;;;;;4240564;27;20657;-80
2022/12/03 06:36:58;;;;;;;8.90;8.00;;;18.00;94.50;;;;;;4235288;28;20249;-81
2022/12/03 06:39:01;;;;;;;9.00;8.02;;;18.00;94.10;;;;;;4242180;27;20262;-81
2022/12/03 06:41:03;;;;;;;8.52;7.60;;;18.00;94.20;;;;;;4240363;27;20313;-80
2022/12/03 06:43:05;;;;;;;9.02;8.13;;;18.00;94.20;;;;;;4245810;27;20213;-81
2022/12/03 06:45:08;;;;;;;8.38;6.95;;;18.00;94.20;;;;;;4226880;27;20217;-81
2022/12/03 06:47:10;;;;;;;8.30;7.38;;;18.00;94.00;;;;;;4231131;28;20214;-80
2022/12/03 06:49:14;;;;;;;8.95;7.80;;;18.00;93.90;;;;;;4239510;27;20222;-80
2022/12/03 06:51:16;;;;;;;8.27;7.47;;;18.00;94.10;;;;;;4242466;27;20270;-81
2022/12/03 06:53:19;;;;;;;8.77;7.88;;;18.00;94.00;;;;;;4242564;27;20271;-81
2022/12/03 06:55:21;;;;;;;8.38;7.53;;;18.00;94.10;;;;;;4231106;27;20210;-81
2022/12/03 06:57:23;;;;;;;7.93;7.10;;;18.00;94.10;;;;;;4245175;27;20209;-80
2022/12/03 06:59:26;;;;;;;8.43;7.53;;;18.00;94.00;;;;;;4243983;27;20625;-81
2022/12/03 07:01:28;;;;;;;8.35;7.55;;;18.00;94.00;;;;;;4240882;27;20234;-81
2022/12/03 07:03:30;;;;;;;8.00;7.20;;;18.00;94.10;;;;;;4243985;27;20256;-80
2022/12/03 07:05:34;;;;;;;7.95;7.22;;;18.00;94.30;;;;;;4246955;27;20221;-81
2022/12/03 07:07:36;;;;;;;7.63;6.90;;;18.00;94.10;;;;;;4236971;27;20241;-80
2022/12/03 07:09:39;;;;;;;8.90;8.00;;;18.00;94.10;;;;;;4243139;27;20217;-80
2022/12/03 07:11:41;;;;;;;8.30;7.50;;;18.00;94.20;;;;;;4237582;27;20569;-80
2022/12/03 07:13:43;;;;;;;7.75;7.05;;;18.00;94.20;;;;;;4243367;27;20343;-81
2022/12/03 07:15:46;;;;;;;7.63;6.82;;;17.90;94.10;;;;;;4246964;27;20221;-81
2022/12/03 07:17:48;;;;;;;7.55;6.85;;;17.90;94.10;;;;;;4245773;27;20209;-81
2022/12/03 07:19:51;;;;;;;8.02;7.22;;;18.00;94.30;;;;;;4235509;27;20214;-81
2022/12/03 07:21:54;;;;;;;7.70;7.00;;;18.00;94.20;;;;;;4239692;27;20233;-80
2022/12/03 07:23:57;;;;;;;8.57;7.68;;;18.00;94.10;;;;;;4246268;27;20254;-81
2022/12/03 07:25:59;;;;;;;9.05;7.53;;;17.90;94.20;;;;;;4240494;27;20217;-80
2022/12/03 07:28:01;;;;;;;8.02;7.22;;;17.90;93.90;;;;;;4243783;27;20286;-81
2022/12/03 07:30:04;;;;;;;7.60;6.90;;;17.90;94.10;;;;;;4237957;27;20210;-81
2022/12/03 07:32:07;;;;;;;7.95;7.15;;;17.90;94.10;;;;;;4239989;27;20217;-81
2022/12/03 07:34:09;;;;;;;7.88;6.88;;;17.90;94.00;;;;;;4242109;27;20256;-81
2022/12/03 07:36:11;;;;;;;8.07;7.28;;;17.90;94.10;;;;;;4233120;27;20996;-81
2022/12/03 07:38:15;;;;;;;7.90;7.07;;;17.90;93.90;;;;;;4243365;27;20262;-80
2022/12/03 07:40:18;;;;;;;8.05;7.25;;;17.90;94.00;;;;;;4241173;27;20205;-80
2022/12/03 07:42:20;;;;;;;8.10;7.30;;;17.90;93.90;;;;;;4241445;27;20216;-80
2022/12/03 07:44:22;;;;;;;7.95;6.72;;;17.90;94.10;;;;;;4244778;27;20225;-80
2022/12/03 07:46:25;;;;;;;7.55;6.75;;;17.90;94.00;;;;;;4240076;27;20213;-80
2022/12/03 07:48:27;;;;;;;8.05;7.03;;;17.90;94.00;;;;;;4237809;27;20574;-80
2022/12/03 07:50:29;;;;;;;7.03;6.32;;;17.90;94.00;;;;;;4239340;27;20259;-80
2022/12/03 07:52:32;;;;;;;8.07;7.05;;;17.90;94.10;;;;;;4234011;27;20282;-80
2022/12/03 07:54:35;;;;;;;9.23;7.43;;;17.90;94.00;;;;;;4242913;27;20258;-80
2022/12/03 07:56:38;;;;;;;8.25;7.45;;;17.90;94.00;;;;;;4242987;27;20714;-80
2022/12/03 07:58:40;;;;;;;7.28;6.50;;;17.80;93.80;;;;;;4244274;27;20226;-80
2022/12/03 08:00:42;;;;;;;8.35;7.45;;;17.90;93.90;;;;;;4239409;27;20267;-80
2022/12/03 08:02:45;;;;;;;7.85;6.97;;;17.90;94.30;;;;;;4246703;27;20698;-80
2022/12/03 08:04:47;;;;;;;8.15;7.35;;;17.90;93.90;;;;;;4242767;27;20262;-80
2022/12/03 08:06:49;;;;;;;7.95;7.15;;;17.80;94.10;;;;;;4247087;27;20896;-80
2022/12/03 08:08:51;;;;;;;8.52;7.70;;;17.80;94.10;;;;;;4246845;27;20282;-80
2022/12/03 08:10:55;;;;;;;7.88;7.05;;;17.80;94.20;;;;;;4228126;27;20239;-80
2022/12/03 08:12:59;;;;;;;7.65;6.85;;;17.80;94.30;;;;;;4242303;27;20286;-80
2022/12/03 08:15:02;;;;;;;7.65;6.95;;;17.80;94.30;;;;;;4245574;27;20221;-80
2022/12/03 08:17:11;;;;;;;7.85;6.88;;;17.80;94.20;;;;;;4245478;27;20209;-80
2022/12/03 08:19:16;;;;;;;8.07;6.93;;;17.80;94.30;;;;;;4246779;27;20550;-80
2022/12/03 08:21:20;;;;;;;8.73;6.63;;;17.80;94.30;;;;;;4245490;27;20213;-80
2022/12/03 08:23:24;;;;;;;8.52;7.72;;;17.80;94.30;;;;;;4241358;27;20282;-80
2022/12/03 08:25:29;;;;;;;7.78;6.97;;;17.80;94.10;;;;;;4241233;27;20258;-80
2022/12/03 08:27:33;;;;;;;7.70;6.90;;;17.80;94.10;;;;;;4235080;27;20217;-80
2022/12/03 08:29:36;;;;;;;7.65;6.95;;;17.80;94.40;;;;;;4234187;27;20309;-80
2022/12/03 08:31:39;;;;;;;7.90;7.00;;;17.80;94.50;;;;;;4242838;27;20273;-80
2022/12/03 08:33:41;;;;;;;7.75;6.95;;;17.80;94.30;;;;;;4238362;27;20218;-80
2022/12/03 08:35:49;;;;;;;8.38;7.57;;;17.80;94.40;;;;;;4244301;27;20662;-80
2022/12/03 08:37:59;;;;;;;7.82;7.03;;;17.80;94.50;;;;;;4246230;27;20204;-80
2022/12/03 08:40:01;;;;;;;7.47;6.68;;;17.80;94.40;;;;;;4243393;27;20214;-81
2022/12/03 08:44:40;;;;;;;8.82;7.50;;;17.80;94.40;;;;;;4243148;27;20204;-80
2022/12/03 08:46:42;;;;;;;7.70;6.97;;;17.80;94.30;;;;;;4241192;27;20322;-80
2022/12/03 08:48:45;;;;;;;7.35;6.65;;;17.80;94.30;;;;;;4245490;27;20642;-80
2022/12/03 08:50:48;;;;;;;7.55;6.70;;;17.80;94.30;;;;;;4241056;27;20205;-80
2022/12/03 08:52:52;;;;;;;7.80;6.78;;;17.80;94.40;;;;;;4244590;27;20324;-79
2022/12/03 08:54:55;;;;;;;7.30;6.60;;;17.80;94.30;;;;;;4245853;27;20254;-80
2022/12/03 08:56:58;;;;;;;8.20;7.30;;;17.80;94.40;;;;;;4242415;27;20239;-80
2022/12/03 08:59:14;;;;;;;7.97;7.18;;;17.80;94.40;;;;;;4245253;27;20254;-80
2022/12/03 09:01:38;;;;;;;8.35;6.78;;;17.70;94.60;;;;;;4245462;27;20250;-80
2022/12/03 09:03:48;;;;;;;7.90;7.10;;;17.80;94.40;;;;;;4230265;27;20225;-80
2022/12/03 09:05:50;;;;;;;8.65;6.60;;;17.80;94.40;;;;;;4242091;27;20221;-80
2022/12/03 09:07:52;;;;;;;8.48;7.28;;;17.80;94.40;;;;;;4243059;27;20221;-80
2022/12/03 09:09:55;;;;;;;8.38;7.57;;;17.80;94.60;;;;;;4243081;27;20230;-80
2022/12/03 09:11:57;;;;;;;7.03;6.32;;;17.80;94.60;;;;;;4245325;27;20627;-80
2022/12/03 09:13:59;;;;;;;8.68;7.47;;;17.80;94.60;;;;;;4239540;27;20258;-80
2022/12/03 09:16:02;;;;;;;8.02;7.22;;;17.80;94.60;;;;;;4241262;27;20270;-80
2022/12/03 09:18:05;;;;;;;8.10;7.15;;;17.80;94.60;;;;;;4236845;27;20209;-80
2022/12/03 09:20:08;;;;;;;9.10;7.32;;;17.70;94.50;;;;;;4243142;27;20217;-80
2022/12/03 09:22:12;;;;;;;8.75;7.53;;;17.80;94.60;;;;;;4244994;27;20229;-80
2022/12/03 09:24:14;;;;;;;7.85;7.03;;;17.80;94.60;;;;;;4245128;27;20258;-80
2022/12/03 09:26:16;;;;;;;8.43;7.57;;;17.80;94.70;;;;;;4240117;27;20937;-80
2022/12/03 09:28:18;;;;;;;8.05;7.25;;;17.70;94.70;;;;;;4238335;27;20209;-80
2022/12/03 09:30:21;;;;;;;8.07;7.38;;;17.70;94.60;;;;;;4237938;27;20228;-80
2022/12/03 09:32:23;;;;;;;8.38;7.57;;;17.70;94.50;;;;;;4234568;27;20213;-80
2022/12/03 09:34:27;;;;;;;7.63;6.85;;;17.70;94.70;;;;;;4239328;27;20262;-80
2022/12/03 09:36:29;;;;;;;8.48;7.63;;;17.70;94.70;;;;;;4242062;27;20213;-80
2022/12/03 09:38:32;;;;;;;8.48;7.13;;;17.70;94.60;;;;;;4236091;28;20289;-80
2022/12/03 09:40:34;;;;;;;8.35;7.45;;;17.70;94.70;;;;;;4244743;27;20213;-80
2022/12/03 09:42:38;;;;;;;7.85;6.97;;;17.70;94.80;;;;;;4245717;27;20221;-81
2022/12/03 09:44:40;;;;;;;7.82;6.97;;;17.70;95.00;;;;;;4242831;27;20213;-80
2022/12/03 09:46:43;;;;;;;8.00;7.20;;;17.70;94.60;;;;;;4233351;28;20210;-81
2022/12/03 09:48:46;;;;;;;7.43;6.63;;;17.70;95.00;;;;;;4233537;27;20299;-81
2022/12/03 09:50:50;;;;;;;8.07;7.25;;;17.70;94.70;;;;;;4241400;28;20209;-80
2022/12/03 09:52:56;;;;;;;8.07;7.28;;;17.70;94.80;;;;;;4233355;28;20896;-81
2022/12/03 09:55:00;;;;;;;8.00;7.20;;;17.70;95.20;;;;;;4227812;28;20209;-81
2022/12/03 09:57:04;;;;;;;8.43;7.10;;;17.70;95.30;;;;;;4244745;28;20246;-80
2022/12/03 09:59:12;;;;;;;8.68;7.38;;;17.70;94.80;;;;;;4244428;27;20209;-80
2022/12/03 10:01:15;;;;;;;8.18;7.38;;;17.70;94.60;;;;;;4241933;28;20269;-81
2022/12/03 10:03:20;;;;;;;8.45;7.22;;;17.70;94.60;;;;;;4244893;28;20212;-80
2022/12/03 10:05:23;;;;;;;8.80;7.38;;;17.70;95.10;;;;;;4242949;28;20209;-80
2022/12/03 10:07:26;;;;;;;8.27;7.47;;;17.70;95.00;;;;;;4242179;28;20282;-80
2022/12/03 10:09:30;;;;;;;8.65;7.30;;;17.70;95.00;;;;;;4243917;28;20249;-80
2022/12/03 10:11:34;;;;;;;8.73;7.82;;;17.70;95.00;;;;;;4243948;28;20225;-81
2022/12/03 10:13:37;;;;;;;8.63;7.72;;;17.70;94.90;;;;;;4242262;27;20229;-80
2022/12/03 10:15:39;;;;;;;7.85;7.05;;;17.70;95.10;;;;;;4248333;27;20653;-81
2022/12/03 10:17:42;;;;;;;8.70;7.80;;;17.70;94.80;;;;;;4246990;27;20205;-81
2022/12/03 10:19:44;;;;;;;8.25;7.43;;;17.70;94.90;;;;;;4247394;27;20262;-80
2022/12/03 10:21:47;;;;;;;7.70;6.93;;;17.70;95.00;;;;;;4247787;27;20244;-80
2022/12/03 10:24:17;;;;;;;10.05;7.82;;;17.70;94.90;;;;;;4240131;27;20209;-80
2022/12/03 10:26:20;;;;;;;8.82;7.45;;;17.70;94.70;;;;;;4243212;27;20254;-80
2022/12/03 10:28:31;;;;;;;7.72;6.90;;;17.70;95.00;;;;;;4248458;27;20221;-80
2022/12/03 10:30:33;;;;;;;8.20;7.30;;;17.70;94.90;;;;;;4244675;27;20644;-80
2022/12/03 10:32:40;;;;;;;9.13;7.28;;;17.70;94.70;;;;;;4247599;27;20221;-80
2022/12/03 10:34:43;;;;;;;8.18;7.28;;;17.70;94.90;;;;;;4247419;27;20222;-81
2022/12/03 10:36:45;;;;;;;8.70;7.78;;;17.60;95.00;;;;;;4246856;27;20217;-80
2022/12/03 10:39:08;;;;;;;8.57;7.68;;;17.60;94.90;;;;;;4247218;27;20270;-80
2022/12/03 10:41:22;;;;;;;8.00;7.20;;;17.70;95.30;;;;;;4247384;27;20220;-80
2022/12/03 10:43:25;;;;;;;8.32;7.43;;;17.60;95.30;;;;;;4245054;27;20204;-81
2022/12/03 10:45:27;;;;;;;8.02;7.22;;;17.60;95.00;;;;;;4238167;27;20222;-81
2022/12/03 10:47:30;;;;;;;8.25;7.43;;;17.60;95.30;;;;;;4237658;27;20213;-80
2022/12/03 10:49:32;;;;;;;7.95;6.93;;;17.60;95.20;;;;;;4242326;27;20915;-80
2022/12/03 10:51:35;;;;;;;7.40;6.70;;;17.60;95.00;;;;;;4241280;27;20205;-81
2022/12/03 10:53:39;;;;;;;8.68;7.75;;;17.60;95.40;;;;;;4238849;27;20458;-80
2022/12/03 10:55:44;;;;;;;8.30;7.47;;;17.60;95.30;;;;;;4244674;27;20213;-81